createdAt,value
2023-07-19T00:00:37.724Z,11.90
2023-07-19T00:15:39.643Z,12.93
2023-07-19T00:30:42.433Z,13.67
2023-07-19T01:00:49.468Z,15.43
2023-07-19T01:15:51.917Z,16.43
2023-07-19T01:30:53.874Z,27.93
2023-07-19T01:45:55.901Z,14.93
2023-07-19T02:00:58.244Z,11.93
2023-07-19T02:16:00.282Z,12.10
2023-07-19T02:31:03.837Z,12.50
2023-07-19T02:46:05.796Z,19.35
2023-07-19T03:01:07.849Z,12.13
2023-07-19T03:16:09.891Z,18.40
2023-07-19T03:31:12.965Z,12.03
2023-07-19T03:46:15.029Z,11.70
2023-07-19T04:01:17.857Z,15.70
2023-07-19T04:31:22.669Z,18.52
2023-07-19T04:46:24.758Z,13.83
2023-07-19T05:01:27.344Z,10.87
2023-07-19T05:16:29.430Z,21.53
2023-07-19T05:31:31.431Z,9.70
2023-07-19T05:46:37.598Z,9.97
2023-07-19T06:01:40.255Z,9.55
2023-07-19T06:16:42.245Z,8.68
2023-07-19T06:46:47.479Z,11.27
2023-07-19T07:01:49.617Z,7.82
2023-07-19T07:16:51.509Z,13.25
2023-07-19T07:31:53.534Z,6.30
2023-07-19T07:46:55.463Z,8.20
2023-07-19T08:01:57.504Z,6.15
2023-07-19T08:17:02.336Z,7.28
2023-07-19T08:32:05.300Z,5.88
2023-07-19T08:47:10.590Z,5.13
2023-07-19T09:02:12.770Z,2.15
2023-07-19T09:17:14.889Z,4.18
2023-07-19T09:32:17.021Z,7.20
2023-07-19T09:47:28.814Z,13.73
2023-07-19T10:02:31.985Z,3.42
2023-07-19T10:17:57.543Z,4.97
2023-07-19T10:32:59.721Z,3.20
2023-07-19T10:48:02.630Z,1.80
2023-07-19T11:03:05.747Z,3.33
2023-07-19T11:18:07.871Z,4.53
2023-07-19T11:33:13.834Z,2.65
2023-07-19T11:48:16.081Z,1.83
2023-07-19T12:03:19.333Z,2.33
2023-07-19T12:18:22.012Z,3.35
2023-07-19T12:33:23.951Z,1.98
2023-07-19T12:48:26.633Z,1.35
2023-07-19T13:03:28.847Z,3.60
2023-07-19T13:18:31.669Z,4.18
2023-07-19T13:33:33.800Z,2.85
2023-07-19T13:48:35.713Z,5.28
2023-07-19T14:03:40.827Z,4.05
2023-07-19T14:18:42.799Z,4.30
2023-07-19T14:33:44.834Z,1.88
2023-07-19T14:48:46.790Z,2.75
2023-07-19T15:03:50.479Z,5.32
2023-07-19T15:18:52.664Z,2.50
2023-07-19T15:33:54.767Z,1.55
2023-07-19T15:48:56.801Z,1.83
2023-07-19T16:03:59.196Z,5.22
2023-07-19T16:19:01.121Z,5.78
2023-07-19T16:34:03.099Z,3.88
2023-07-19T16:49:05.274Z,6.82
2023-07-19T17:04:07.397Z,3.42
2023-07-19T17:19:15.640Z,2.53
2023-07-19T17:34:18.304Z,5.38
2023-07-19T17:49:20.379Z,6.95
2023-07-19T18:19:24.316Z,5.30
2023-07-19T18:34:26.594Z,7.17
2023-07-19T19:04:30.523Z,5.97
2023-07-19T19:19:32.814Z,4.10
2023-07-19T19:34:35.697Z,6.25
2023-07-19T19:49:38.117Z,7.82
2023-07-19T20:04:40.671Z,7.38
2023-07-19T20:19:53.040Z,4.97
2023-07-19T20:34:57.294Z,3.63
2023-07-19T20:49:59.390Z,4.25
2023-07-19T21:05:01.408Z,4.07
2023-07-19T21:20:04.125Z,9.70
2023-07-19T21:35:06.329Z,5.07
2023-07-19T21:50:08.495Z,5.83
2023-07-19T22:05:10.615Z,5.80
2023-07-19T22:20:13.128Z,4.93
2023-07-19T22:35:15.150Z,5.30
2023-07-19T22:50:17.372Z,5.80
2023-07-19T23:05:19.872Z,4.15
2023-07-19T23:20:22.233Z,5.53
2023-07-19T23:35:24.162Z,6.53
2023-07-19T23:50:26.185Z,4.63
